Terminal Aerodrome Forecast
Issued by NWS

Home | Current Version | Previous Version | Text Only | Print | Product List | Glossary Off
Versions: 1 2 3 4 5 6 7 8 9 10 11 12 13 14 15 16 17 18 19 20 21 22 23 24

000
FTUS43 KGRB 192300
TAFRHI
TAF
KRHI 192325Z 2000/2024 20007KT P6SM SCT040 BKN080
     FM200400 20004KT P6SM BKN040
     FM201400 20011G18KT P6SM SCT045 BKN250=

USA.gov is the U.S. government's official web portal to all federal, state and local government web resources and services.